Athens, Wisconsin
Current Conditions -  °F | °C
As of 5:15 AM on Friday 24 Oct 2014 (Local Time) from KMDZ Reporting Station
Moderate Fog Moderate Fog  
Wind Chill: 43°   Ceiling: 200
Heat Index: 43°   Visibility: 0.5mi
Dew Point: 43°   Wind: 3mph
Humidity: 100%   Direction: 230°SW
Pressure: 30"   Gusts: NA
Location:  45.03°N, 90.07°W
Report Text: KMDZ 241015Z AUTO 23003KT 1/2SM FG OVC002 06/06 A3000 RMK AO2 T00630063
Loading
Personal Weather Stations






























Interactive Weather Map
Tropical Storm Tracking
New forecast layout! Learn more

10-Day Weather Forecast

Advertisements
Track Severe Weather on mobile